createdAt,value
2018-07-15T00:00:39.720Z,1.47
2018-07-15T00:03:12.325Z,1.20
2018-07-15T00:05:44.483Z,1.23
2018-07-15T00:08:16.893Z,1.13
2018-07-15T00:10:49.487Z,1.27
2018-07-15T00:13:21.799Z,1.10
2018-07-15T00:15:54.037Z,0.93
2018-07-15T00:18:26.631Z,0.90
2018-07-15T00:20:59.076Z,1.00
2018-07-15T00:23:31.778Z,1.30
2018-07-15T00:26:04.524Z,1.17
2018-07-15T00:28:36.969Z,1.13
2018-07-15T00:31:09.790Z,0.90
2018-07-15T00:33:42.085Z,0.60
2018-07-15T00:36:15.625Z,0.80
2018-07-15T00:38:47.064Z,0.70
2018-07-15T00:41:20.094Z,1.00
2018-07-15T00:43:52.533Z,0.63
2018-07-15T00:46:24.949Z,0.80
2018-07-15T00:48:57.666Z,0.73
2018-07-15T00:51:30.303Z,0.87
2018-07-15T00:54:02.554Z,2.83
2018-07-15T00:56:34.751Z,0.97
2018-07-15T00:59:07.300Z,0.70
2018-07-15T01:01:39.450Z,0.50
2018-07-15T01:04:12.001Z,1.40
2018-07-15T01:06:44.639Z,1.53
2018-07-15T01:09:17.219Z,0.97
2018-07-15T01:11:49.575Z,1.30
2018-07-15T01:14:21.963Z,1.13
2018-07-15T01:16:54.123Z,0.90
2018-07-15T01:19:26.913Z,0.80
2018-07-15T01:21:59.064Z,0.90
2018-07-15T01:24:32.164Z,0.80
2018-07-15T01:27:04.834Z,1.20
2018-07-15T01:29:37.391Z,1.37
2018-07-15T01:32:09.771Z,1.23
2018-07-15T01:34:42.064Z,1.13
2018-07-15T01:37:14.766Z,1.17
2018-07-15T01:39:47.464Z,1.03
2018-07-15T01:42:20.173Z,1.20
2018-07-15T01:44:52.675Z,1.50
2018-07-15T01:47:25.055Z,1.30
2018-07-15T01:49:57.555Z,1.20
2018-07-15T01:52:30.315Z,1.80
2018-07-15T01:55:02.701Z,1.60
2018-07-15T01:57:35.174Z,1.63
2018-07-15T02:00:08.164Z,1.70
2018-07-15T02:02:40.684Z,2.17
2018-07-15T02:05:12.846Z,2.33
2018-07-15T02:07:45.664Z,2.23
2018-07-15T02:10:17.768Z,2.30
2018-07-15T02:12:50.351Z,2.50
2018-07-15T02:15:22.821Z,2.43
2018-07-15T02:17:55.187Z,2.93
2018-07-15T02:20:27.429Z,2.33
2018-07-15T02:22:59.808Z,2.73
2018-07-15T02:25:32.398Z,2.57
2018-07-15T02:28:04.638Z,3.03
2018-07-15T02:30:36.956Z,2.90
2018-07-15T02:33:09.761Z,2.67
2018-07-15T02:35:42.253Z,3.40
2018-07-15T02:38:14.870Z,2.73
2018-07-15T02:40:47.257Z,2.50
2018-07-15T02:43:18.487Z,3.30
2018-07-15T02:45:50.843Z,2.70
2018-07-15T02:48:23.051Z,3.00
2018-07-15T02:50:55.830Z,2.53
2018-07-15T02:53:28.189Z,3.27
2018-07-15T02:56:00.362Z,2.90
2018-07-15T02:58:32.943Z,2.80
2018-07-15T03:01:05.332Z,2.90
2018-07-15T03:03:37.659Z,3.33
2018-07-15T03:06:10.468Z,3.20
2018-07-15T03:08:42.942Z,3.00
2018-07-15T03:11:15.250Z,3.20
2018-07-15T03:13:47.777Z,2.93
2018-07-15T03:16:20.131Z,3.37
2018-07-15T03:18:52.591Z,3.50
2018-07-15T03:21:25.223Z,3.03
2018-07-15T03:23:57.760Z,3.10
2018-07-15T03:26:30.412Z,3.43
2018-07-15T03:29:02.600Z,2.80
2018-07-15T03:31:33.846Z,3.50
2018-07-15T03:34:06.881Z,3.00
2018-07-15T03:36:39.409Z,2.90
2018-07-15T03:39:12.106Z,3.00
2018-07-15T03:41:44.602Z,3.50
2018-07-15T03:44:16.932Z,3.27
2018-07-15T03:46:49.077Z,3.13
2018-07-15T03:49:21.907Z,3.30
2018-07-15T03:51:54.347Z,2.90
2018-07-15T03:54:26.673Z,3.43
2018-07-15T03:56:58.984Z,3.30
2018-07-15T03:59:31.316Z,3.67
2018-07-15T04:02:03.729Z,3.30
2018-07-15T04:04:36.138Z,3.50
2018-07-15T04:07:08.471Z,3.00
2018-07-15T04:09:40.846Z,3.27
2018-07-15T04:12:13.029Z,4.47
2018-07-15T04:14:45.575Z,3.77
2018-07-15T04:17:18.778Z,3.87
2018-07-15T04:19:51.395Z,3.50
2018-07-15T04:22:23.908Z,3.90
2018-07-15T04:24:56.940Z,3.40
2018-07-15T04:27:29.319Z,3.90
2018-07-15T04:30:01.888Z,4.40
2018-07-15T04:32:33.591Z,3.90
2018-07-15T04:35:06.129Z,3.90
2018-07-15T04:37:38.395Z,4.53
2018-07-15T04:40:10.651Z,4.07
2018-07-15T04:42:43.361Z,4.17
2018-07-15T04:45:15.577Z,3.47
2018-07-15T04:47:47.932Z,3.60
2018-07-15T04:50:22.210Z,3.80
2018-07-15T04:52:55.230Z,3.67
2018-07-15T04:55:27.289Z,3.97
2018-07-15T04:57:59.714Z,4.07
2018-07-15T05:00:32.072Z,3.83
2018-07-15T05:03:04.258Z,3.43
2018-07-15T05:05:36.845Z,4.00
2018-07-15T05:08:09.392Z,4.17
2018-07-15T05:10:41.441Z,4.03
2018-07-15T05:13:14.175Z,3.77
2018-07-15T05:15:46.599Z,4.13
2018-07-15T05:18:19.865Z,5.07
2018-07-15T05:20:52.340Z,5.33
2018-07-15T05:23:24.731Z,4.40
2018-07-15T05:25:56.694Z,4.10
2018-07-15T05:28:28.892Z,3.87
2018-07-15T05:31:01.463Z,4.30
2018-07-15T05:33:32.848Z,4.03
2018-07-15T05:36:05.685Z,3.67
2018-07-15T05:38:43.190Z,3.63
2018-07-15T05:41:16.137Z,4.37
2018-07-15T05:43:48.705Z,3.50
2018-07-15T05:46:21.148Z,4.33
2018-07-15T05:48:53.558Z,3.83
2018-07-15T05:51:26.542Z,3.70
2018-07-15T05:53:58.965Z,3.90
2018-07-15T05:56:31.509Z,4.60
2018-07-15T05:59:03.885Z,3.63
2018-07-15T06:01:36.505Z,3.70
2018-07-15T06:04:08.915Z,4.50
2018-07-15T06:06:41.413Z,3.93
2018-07-15T06:09:13.806Z,4.50
2018-07-15T06:11:46.175Z,4.53
2018-07-15T06:14:18.366Z,4.03
2018-07-15T06:16:50.938Z,4.73
2018-07-15T06:19:23.256Z,4.03
2018-07-15T06:21:55.474Z,3.97
2018-07-15T06:24:28.217Z,4.10
2018-07-15T06:27:00.633Z,4.30
2018-07-15T06:29:32.963Z,4.27
2018-07-15T06:32:05.422Z,3.90
2018-07-15T06:34:37.898Z,3.80
2018-07-15T06:37:11.346Z,3.87
2018-07-15T06:39:43.856Z,4.00
2018-07-15T06:42:16.912Z,3.77
2018-07-15T06:44:49.432Z,4.40
2018-07-15T06:47:22.177Z,4.30
2018-07-15T06:49:54.905Z,4.40
2018-07-15T06:52:26.507Z,4.43
2018-07-15T06:54:59.652Z,3.93
2018-07-15T06:57:30.877Z,3.93
2018-07-15T07:00:03.439Z,4.57
2018-07-15T07:02:36.261Z,4.33
2018-07-15T07:05:08.824Z,4.87
2018-07-15T07:07:41.372Z,5.17
2018-07-15T07:10:13.821Z,4.20
2018-07-15T07:12:47.646Z,4.10
2018-07-15T07:15:19.966Z,4.13
2018-07-15T07:17:52.178Z,4.00
2018-07-15T07:20:24.668Z,3.37
2018-07-15T07:22:56.913Z,4.03
2018-07-15T07:25:29.991Z,4.47
2018-07-15T07:28:02.234Z,4.40
2018-07-15T07:30:35.057Z,3.97
2018-07-15T07:33:08.591Z,5.17
2018-07-15T07:35:41.160Z,4.47
2018-07-15T07:38:13.744Z,4.50
2018-07-15T07:40:46.363Z,5.40
2018-07-15T07:43:18.833Z,3.70
2018-07-15T07:45:51.473Z,4.40
2018-07-15T07:48:23.726Z,4.30
2018-07-15T07:50:55.923Z,4.57
2018-07-15T07:53:28.473Z,4.57
2018-07-15T07:56:01.039Z,4.37
2018-07-15T07:58:33.420Z,5.30
2018-07-15T08:01:05.792Z,4.20
2018-07-15T08:03:38.254Z,3.80
2018-07-15T08:06:10.418Z,3.80
2018-07-15T08:08:42.897Z,4.30
2018-07-15T08:11:15.304Z,4.97
2018-07-15T08:13:47.479Z,4.30
2018-07-15T08:16:19.837Z,4.03
2018-07-15T08:18:52.182Z,4.23
2018-07-15T08:21:24.996Z,4.13
2018-07-15T08:23:57.825Z,5.37
2018-07-15T08:26:30.229Z,4.23
2018-07-15T08:29:03.012Z,4.30
2018-07-15T08:31:35.705Z,4.50
2018-07-15T08:34:07.859Z,4.13
2018-07-15T08:36:40.645Z,4.43
2018-07-15T08:39:13.558Z,5.47
2018-07-15T08:41:46.189Z,4.30
2018-07-15T08:44:18.567Z,3.93
2018-07-15T08:46:51.173Z,4.47
2018-07-15T08:49:23.536Z,4.73
2018-07-15T08:51:55.919Z,5.20
2018-07-15T08:54:28.664Z,4.67
2018-07-15T08:57:01.358Z,3.80
2018-07-15T08:59:33.704Z,4.77
2018-07-15T09:02:05.926Z,4.37
2018-07-15T09:04:38.518Z,4.70
2018-07-15T09:07:11.081Z,3.90
2018-07-15T09:09:43.473Z,4.43
2018-07-15T09:12:15.587Z,4.50
2018-07-15T09:14:48.155Z,4.40
2018-07-15T09:17:21.117Z,5.43
2018-07-15T09:19:53.725Z,4.53
2018-07-15T09:22:26.124Z,5.07
2018-07-15T09:24:58.433Z,5.73
2018-07-15T09:27:30.877Z,5.00
2018-07-15T09:30:03.362Z,4.20
2018-07-15T09:32:35.518Z,4.30
2018-07-15T09:35:07.839Z,5.10
2018-07-15T09:37:40.271Z,3.90
2018-07-15T09:40:13.025Z,4.80
2018-07-15T09:42:45.475Z,4.77
2018-07-15T09:45:18.168Z,5.20
2018-07-15T09:47:50.330Z,4.73
2018-07-15T09:50:22.702Z,4.30
2018-07-15T09:52:55.463Z,4.57
2018-07-15T09:55:28.416Z,4.63
2018-07-15T09:58:00.807Z,4.50
2018-07-15T10:00:37.764Z,4.60
2018-07-15T10:03:10.589Z,4.60
2018-07-15T10:05:42.915Z,4.33
2018-07-15T10:08:15.349Z,3.90
2018-07-15T10:10:47.685Z,4.73
2018-07-15T10:13:20.101Z,4.70
2018-07-15T10:15:52.418Z,4.60
2018-07-15T10:18:24.637Z,5.20
2018-07-15T10:20:56.964Z,4.27
2018-07-15T10:23:29.371Z,4.83
2018-07-15T10:26:02.369Z,5.57
2018-07-15T10:28:35.546Z,4.03
2018-07-15T10:31:08.183Z,4.40
2018-07-15T10:33:40.670Z,5.83
2018-07-15T10:36:13.052Z,4.60
2018-07-15T10:38:45.630Z,4.83
2018-07-15T10:41:18.418Z,4.40
2018-07-15T10:43:50.966Z,4.43
2018-07-15T10:46:23.168Z,4.70
2018-07-15T10:48:55.788Z,4.93
2018-07-15T10:51:28.116Z,4.10
2018-07-15T10:54:00.480Z,4.30
2018-07-15T10:56:32.909Z,5.10
2018-07-15T10:59:05.230Z,4.37
2018-07-15T11:01:37.445Z,5.20
2018-07-15T11:04:12.204Z,4.90
2018-07-15T11:06:44.558Z,5.30
2018-07-15T11:09:16.762Z,4.80
2018-07-15T11:11:49.129Z,5.00
2018-07-15T11:14:21.479Z,4.53
2018-07-15T11:16:53.811Z,5.00
2018-07-15T11:19:26.383Z,4.83
2018-07-15T11:21:59.059Z,4.90
2018-07-15T11:24:31.708Z,5.00
2018-07-15T11:27:04.259Z,4.63
2018-07-15T11:29:36.797Z,4.97
2018-07-15T11:32:09.118Z,4.97
2018-07-15T11:34:41.488Z,5.33
2018-07-15T11:37:13.850Z,5.10
2018-07-15T11:39:46.227Z,5.40
2018-07-15T11:42:19.204Z,5.10
2018-07-15T11:44:51.583Z,6.10
2018-07-15T11:47:23.801Z,4.13
2018-07-15T11:49:56.294Z,4.77
2018-07-15T11:52:28.741Z,5.60
2018-07-15T11:55:00.894Z,5.70
2018-07-15T11:57:33.248Z,5.27
2018-07-15T12:00:06.101Z,5.43
2018-07-15T12:02:38.581Z,5.50
2018-07-15T12:05:10.841Z,4.40
2018-07-15T12:07:43.338Z,5.50
2018-07-15T12:10:15.547Z,5.37
2018-07-15T12:12:48.071Z,5.60
2018-07-15T12:15:20.352Z,5.87
2018-07-15T12:17:52.697Z,5.33
2018-07-15T12:20:25.127Z,5.47
2018-07-15T12:22:57.840Z,5.50
2018-07-15T12:25:30.450Z,5.87
2018-07-15T12:28:03.225Z,4.93
2018-07-15T12:30:35.813Z,5.73
2018-07-15T12:33:08.267Z,6.00
2018-07-15T12:35:40.539Z,5.90
2018-07-15T12:38:12.890Z,5.97
2018-07-15T12:40:45.139Z,6.07
2018-07-15T12:43:17.453Z,5.33
2018-07-15T12:45:49.691Z,6.10
2018-07-15T12:48:21.936Z,6.10
2018-07-15T12:50:54.412Z,4.97
2018-07-15T12:53:26.554Z,5.13
2018-07-15T12:55:59.103Z,5.97
2018-07-15T12:58:31.724Z,4.87
2018-07-15T13:01:04.327Z,6.23
2018-07-15T13:03:36.440Z,5.50
2018-07-15T13:06:09.067Z,6.83
2018-07-15T13:08:41.426Z,6.10
2018-07-15T13:11:13.749Z,6.40
2018-07-15T13:13:46.484Z,6.10
2018-07-15T13:16:19.315Z,6.07
2018-07-15T13:18:51.660Z,6.40
2018-07-15T13:21:24.077Z,6.33
2018-07-15T13:23:56.770Z,5.90
2018-07-15T13:26:29.705Z,6.70
2018-07-15T13:29:02.397Z,6.20
2018-07-15T13:31:34.799Z,6.33
2018-07-15T13:34:07.032Z,6.53
2018-07-15T13:36:39.750Z,6.20
2018-07-15T13:39:12.077Z,6.33
2018-07-15T13:41:44.464Z,6.63
2018-07-15T13:44:17.045Z,7.00
2018-07-15T13:46:49.467Z,6.73
2018-07-15T13:49:21.990Z,8.03
2018-07-15T13:51:54.558Z,6.40
2018-07-15T13:54:27.134Z,6.50
2018-07-15T13:56:59.842Z,5.70
2018-07-15T13:59:32.590Z,6.43
2018-07-15T14:02:05.081Z,5.70
2018-07-15T14:04:37.450Z,5.70
2018-07-15T14:07:09.845Z,5.90
2018-07-15T14:09:42.213Z,6.30
2018-07-15T14:12:14.355Z,6.60
2018-07-15T14:14:46.937Z,5.60
2018-07-15T14:17:19.335Z,6.00
2018-07-15T14:19:51.688Z,6.57
2018-07-15T14:22:24.032Z,5.60
2018-07-15T14:24:56.424Z,5.93
2018-07-15T14:27:29.021Z,5.43
2018-07-15T14:30:01.487Z,5.47
2018-07-15T14:32:33.925Z,5.77
2018-07-15T14:35:06.359Z,6.20
2018-07-15T14:37:38.725Z,5.70
2018-07-15T14:40:11.263Z,4.90
2018-07-15T14:42:43.512Z,4.77
2018-07-15T14:45:16.431Z,4.80
2018-07-15T14:47:48.990Z,5.10
2018-07-15T14:50:21.483Z,4.80
2018-07-15T14:52:53.906Z,5.80
2018-07-15T14:55:26.430Z,5.47
2018-07-15T14:57:59.048Z,4.87
2018-07-15T15:00:31.184Z,5.17
2018-07-15T15:03:03.742Z,5.20
2018-07-15T15:05:36.245Z,4.30
2018-07-15T15:08:08.456Z,4.70
2018-07-15T15:10:40.858Z,4.10
2018-07-15T15:13:13.239Z,5.37
2018-07-15T15:15:45.447Z,5.10
2018-07-15T15:18:17.652Z,4.37
2018-07-15T15:20:49.987Z,4.80
2018-07-15T15:23:22.419Z,4.77
2018-07-15T15:25:55.204Z,4.30
2018-07-15T15:28:27.712Z,3.90
2018-07-15T15:31:00.093Z,4.07
2018-07-15T15:33:32.316Z,4.67
2018-07-15T15:36:04.860Z,4.60
2018-07-15T15:38:37.266Z,4.20
2018-07-15T15:41:09.598Z,4.27
2018-07-15T15:43:41.962Z,3.60
2018-07-15T15:46:15.209Z,4.53
2018-07-15T15:48:47.652Z,3.83
2018-07-15T15:51:19.179Z,3.83
2018-07-15T15:53:51.563Z,3.97
2018-07-15T15:56:24.138Z,4.07
2018-07-15T15:58:56.634Z,3.70
2018-07-15T16:01:29.244Z,4.23
2018-07-15T16:04:01.930Z,3.87
2018-07-15T16:06:34.379Z,3.60
2018-07-15T16:09:08.145Z,3.53
2018-07-15T16:11:40.520Z,3.80
2018-07-15T16:14:12.707Z,3.10
2018-07-15T16:16:45.534Z,3.07
2018-07-15T16:19:18.089Z,3.00
2018-07-15T16:21:51.008Z,3.20
2018-07-15T16:24:23.502Z,3.63
2018-07-15T16:26:56.605Z,3.37
2018-07-15T16:29:29.187Z,3.57
2018-07-15T16:32:01.929Z,3.47
2018-07-15T16:34:34.278Z,3.30
2018-07-15T16:37:07.092Z,3.30
2018-07-15T16:39:39.766Z,3.43
2018-07-15T16:42:11.682Z,3.00
2018-07-15T16:44:44.082Z,3.10
2018-07-15T16:47:16.672Z,3.10
2018-07-15T16:49:48.993Z,3.10
2018-07-15T16:52:21.366Z,3.30
2018-07-15T16:54:54.404Z,3.83
2018-07-15T16:57:26.213Z,3.33
2018-07-15T16:59:59.065Z,3.23
2018-07-15T17:02:31.067Z,3.23
2018-07-15T17:05:03.688Z,3.70
2018-07-15T17:07:36.030Z,3.20
2018-07-15T17:10:08.390Z,3.67
2018-07-15T17:12:40.664Z,3.00
2018-07-15T17:15:13.176Z,3.27
2018-07-15T17:17:45.605Z,3.10
2018-07-15T17:20:17.759Z,3.27
2018-07-15T17:22:49.606Z,3.30
2018-07-15T17:25:21.907Z,3.10
2018-07-15T17:27:54.038Z,3.57
2018-07-15T17:30:26.383Z,3.10
2018-07-15T17:32:58.600Z,3.10
2018-07-15T17:35:31.149Z,3.87
2018-07-15T17:38:03.503Z,3.43
2018-07-15T17:40:36.077Z,3.00
2018-07-15T17:43:08.073Z,3.30
2018-07-15T17:45:39.937Z,3.17
2018-07-15T17:48:12.600Z,3.30
2018-07-15T17:50:44.993Z,3.30
2018-07-15T17:53:17.116Z,3.33
2018-07-15T17:55:49.504Z,3.20
2018-07-15T17:58:22.673Z,2.93
2018-07-15T18:00:54.921Z,3.20
2018-07-15T18:03:27.294Z,2.60
2018-07-15T18:05:59.218Z,3.23
2018-07-15T18:08:31.068Z,2.70
2018-07-15T18:11:03.534Z,3.70
2018-07-15T18:13:35.686Z,2.80
2018-07-15T18:16:08.886Z,3.40
2018-07-15T18:18:41.495Z,3.13
2018-07-15T18:21:13.865Z,3.73
2018-07-15T18:23:46.291Z,2.40
2018-07-15T18:26:18.670Z,3.20
2018-07-15T18:28:50.568Z,3.40
2018-07-15T18:31:22.440Z,3.43
2018-07-15T18:33:54.284Z,2.93
2018-07-15T18:36:26.651Z,2.90
2018-07-15T18:38:59.026Z,3.27
2018-07-15T18:41:34.213Z,3.37
2018-07-15T18:44:06.649Z,3.50
2018-07-15T18:46:38.997Z,3.20
2018-07-15T18:49:11.997Z,3.00
2018-07-15T18:51:43.932Z,3.20
2018-07-15T18:54:16.292Z,2.83
2018-07-15T18:56:48.911Z,3.00
2018-07-15T18:59:21.314Z,3.50
2018-07-15T19:01:53.664Z,3.13
2018-07-15T19:04:26.014Z,3.13
2018-07-15T19:06:58.197Z,3.00
2018-07-15T19:09:30.845Z,2.73
2018-07-15T19:12:02.789Z,3.10
2018-07-15T19:14:35.204Z,3.10
2018-07-15T19:17:07.582Z,3.60
2018-07-15T19:19:39.961Z,2.87
2018-07-15T19:22:12.326Z,3.60
2018-07-15T19:24:44.705Z,3.40
2018-07-15T19:27:17.712Z,4.20
2018-07-15T19:29:50.284Z,3.63
2018-07-15T19:32:22.212Z,2.80
2018-07-15T19:34:54.926Z,4.20
2018-07-15T19:37:27.267Z,3.50
2018-07-15T19:39:59.879Z,3.30
2018-07-15T19:42:32.603Z,3.27
2018-07-15T19:45:05.113Z,2.93
2018-07-15T19:47:37.540Z,3.33
2018-07-15T19:50:10.044Z,3.27
2018-07-15T19:52:42.540Z,3.00
2018-07-15T19:55:14.650Z,3.13
2018-07-15T19:57:47.047Z,3.53
2018-07-15T20:00:19.390Z,3.30
2018-07-15T20:02:51.766Z,3.30
2018-07-15T20:05:24.314Z,3.30
2018-07-15T20:07:56.696Z,3.00
2018-07-15T20:10:30.731Z,3.23
2018-07-15T20:13:03.134Z,4.80
2018-07-15T20:15:35.422Z,3.60
2018-07-15T20:18:08.235Z,3.40
2018-07-15T20:20:40.635Z,3.60
2018-07-15T20:23:14.205Z,3.23
2018-07-15T20:25:45.698Z,3.30
2018-07-15T20:28:18.372Z,3.33
2018-07-15T20:30:50.657Z,3.40
2018-07-15T20:33:23.078Z,3.40
2018-07-15T20:35:55.624Z,3.53
2018-07-15T20:38:28.038Z,3.50
2018-07-15T20:40:59.334Z,3.50
2018-07-15T20:43:31.764Z,2.50
2018-07-15T20:46:04.508Z,3.77
2018-07-15T20:48:36.848Z,3.17
2018-07-15T20:51:09.993Z,3.00
2018-07-15T20:53:41.329Z,3.00
2018-07-15T20:56:13.662Z,3.07
2018-07-15T20:58:46.586Z,3.00
2018-07-15T21:01:19.799Z,2.70
2018-07-15T21:03:52.337Z,2.87
2018-07-15T21:06:24.700Z,3.23
2018-07-15T21:08:57.275Z,3.13
2018-07-15T21:11:29.713Z,2.90
2018-07-15T21:14:02.602Z,3.20
2018-07-15T21:16:35.054Z,3.80
2018-07-15T21:19:07.647Z,2.90
2018-07-15T21:21:40.001Z,3.30
2018-07-15T21:24:11.253Z,3.43
2018-07-15T21:26:43.448Z,3.27
2018-07-15T21:29:16.025Z,2.60
2018-07-15T21:31:48.322Z,3.17
2018-07-15T21:34:20.861Z,3.90
2018-07-15T21:36:52.791Z,3.20
2018-07-15T21:39:24.145Z,2.90
2018-07-15T21:41:56.548Z,3.30
2018-07-15T21:44:28.799Z,2.50
2018-07-15T21:47:01.303Z,2.60
2018-07-15T21:49:33.439Z,2.60
2018-07-15T21:52:06.584Z,2.97
2018-07-15T21:54:39.134Z,3.37
2018-07-15T21:57:11.724Z,3.10
2018-07-15T21:59:44.211Z,3.37
2018-07-15T22:02:18.170Z,2.93
2018-07-15T22:04:50.727Z,3.10
2018-07-15T22:07:32.461Z,3.00
2018-07-15T22:10:13.964Z,3.00
2018-07-15T22:12:46.391Z,3.43
2018-07-15T22:15:18.899Z,3.07
2018-07-15T22:17:51.083Z,2.70
2018-07-15T22:20:23.772Z,2.77
2018-07-15T22:22:55.691Z,3.37
2018-07-15T22:25:27.917Z,2.77
2018-07-15T22:28:00.220Z,3.33
2018-07-15T22:30:32.351Z,3.00
2018-07-15T22:33:04.729Z,2.80
2018-07-15T22:35:37.092Z,2.73
2018-07-15T22:38:11.533Z,2.80
2018-07-15T22:40:43.445Z,3.70
2018-07-15T22:43:15.340Z,2.80
2018-07-15T22:45:47.965Z,3.10
2018-07-15T22:48:20.193Z,3.20
2018-07-15T22:50:52.505Z,3.20
2018-07-15T22:53:24.925Z,4.47
2018-07-15T22:55:57.423Z,4.00
2018-07-15T22:58:30.103Z,3.43
2018-07-15T23:01:01.987Z,3.40
2018-07-15T23:03:33.905Z,3.27
2018-07-15T23:06:10.089Z,3.53
2018-07-15T23:08:42.281Z,3.20
2018-07-15T23:11:14.608Z,3.73
2018-07-15T23:13:47.294Z,3.50
2018-07-15T23:16:22.752Z,3.10
2018-07-15T23:18:55.388Z,3.43
2018-07-15T23:21:28.307Z,3.60
2018-07-15T23:24:00.603Z,3.53
2018-07-15T23:26:32.710Z,2.90
2018-07-15T23:29:04.051Z,3.57
2018-07-15T23:31:35.413Z,3.20
2018-07-15T23:34:07.588Z,3.73
2018-07-15T23:36:39.925Z,3.63
2018-07-15T23:39:12.690Z,3.53
2018-07-15T23:41:44.957Z,3.40
2018-07-15T23:44:17.310Z,3.50
2018-07-15T23:46:49.654Z,3.10
2018-07-15T23:49:22.012Z,3.50
2018-07-15T23:51:54.165Z,3.50
2018-07-15T23:54:25.705Z,3.27
2018-07-15T23:56:58.257Z,4.07
2018-07-15T23:59:30.677Z,3.30
